Air Navigation Services of Czech Republic  
Last data update:  18.02.2020 02:58:26 UTC česká verze
   METEO Page displayed:  18.02.2020 02:58:16 UTC  
help
METAR EDDB 180250Z 24014KT 9999 -RA BKN042 07/04 Q1014 NOSIG=
METAR EDDC 180250Z 24013KT CAVOK 07/02 Q1017=
METAR EDDE 180250Z 24018KT 9999 BKN023 06/02 Q1017=
METAR EDDF 180250Z 19011KT 9999 SCT035 BKN048 07/03 Q1022 TEMPO 21015G25KT=
METAR EDDM 180250Z 26011KT 9999 FEW023 SCT045 05/02 Q1024 TEMPO 27015G25KT=
METAR EDDN 180250Z 25011KT 9999 FEW024 BKN049 06/02 Q1023=
METAR EDDP 180250Z 23016KT 9999 FEW043 07/03 Q1016 TEMPO 23015G30KT=
METAR EDDT 180250Z 23012KT 9999 BKN033 07/04 Q1014=
METAR EDQM NIL
METAR EPBY 180230Z 25013KT CAVOK 05/02 Q1012=
METAR EPGD 180230Z 24015KT CAVOK 05/01 Q1009=
METAR EPKK 180230Z 21006KT 9999 -RA FEW022 SCT037 BKN044 07/06 Q1018 =
METAR EPKT 180230Z 22008KT 9999 FEW028 BKN031 07/05 Q1017=
METAR EPLL 180230Z 23008KT CAVOK 07/02 Q1015=
METAR EPPO 180230Z 24008KT CAVOK 05/02 Q1014=
METAR EPRZ 180230Z 23006KT 8000 -RA BKN030 06/05 Q1017=
METAR EPWA 180230Z 25007KT CAVOK 07/04 Q1014 NOSIG=
METAR EPWR 180230Z 26009KT 9999 SCT040 08/02 Q1017=
METAR LHBP 180230Z 34005KT 7000 NSC 05/03 Q1019 NOSIG=
METAR LHSM 180215Z AUTO 32005KT 7000 NSC 07/04 Q1020=
METAR LKBC 180300Z AUTO 23008KT 9999 SCT140 OVC180 06/01 Q1021=
METAR LKCV 180230Z 25009KT CAVOK 07/03 Q1020 NOSIG RMK BLU BLU=
METAR LKKB 180230Z 21011KT 9999 SCT038 BKN120 07/02 Q1019 RMK BLU=
METAR LKKU NIL
METAR LKKV 180200Z 24010KT 200V270 9999 BKN016 BKN030 04/02 Q1018 RMK REG QNH 1016=
METAR LKLN 180300Z AUTO 22010KT 9999 SCT042 SCT160 06/03 Q1021=
METAR LKMT 180230Z 23010KT CAVOK 07/04 Q1019 NOSIG RMK REG QNH 1016=
METAR LKNA 180230Z 28010KT CAVOK 06/02 Q1020 RMK BLU=
METAR LKPD 180230Z 25007KT CAVOK 07/03 Q1020 RMK BLACK=
METAR LKPJ 180230Z AUTO 26008KT 9999 OVC093 08/03 Q1020=
METAR LKPR 180230Z 22010KT 9999 FEW021 SCT032 06/03 Q1019 NOSIG RMK REG QNH 1016=
METAR LKTB 180230Z 26007KT CAVOK 07/04 Q1020 NOSIG RMK REG QNH 1016=
METAR LKVO NIL
METAR LOWI 180250Z AUTO VRB01KT 9999 FEW040 SCT080 BKN090 06/04 Q1024=
METAR LOWL 180250Z AUTO 25004KT 9999 -SHRA FEW028 SCT032 BKN040 06/05 Q1024=
METAR LOWS 180250Z AUTO 30010G20KT 260V340 9999 FEW060 BKN080 08/01 Q1025=
METAR LOWW 180250Z 30015KT 9999 FEW022 SCT070 BKN100 10/05 Q1021 NOSIG=
METAR LZIB 180230Z 31009KT 9999 -RA FEW013 SCT047 OVC076 09/06 Q1021=
METAR LZKZ 180230Z VRB02KT CAVOK 04/01 Q1018=
METAR LZMC NIL
METAR LZPP 180230Z AUTO 24003KT 6000 -RA OVC026/// 05/04 Q1021 REUP=
METAR LZSL 180230Z VRB01KT 9999 OVC035 03/01 Q1019=
METAR LZTT 180230Z 31007KT 240V360 9999 -RA FEW026 BKN050 OVC080 03/01 Q1018=
METAR LZZI 180230Z 13002KT 9999 -RA OVC033 05/04 Q1020=